Time;durP1;ratioP1;P1;durP2;ratioP2;P2;SDS_P1;SDS_P2;PMS_P1;PMS_P2;Temp;Humidity;BMP_temperature;BMP_pressure;BME280_temperature;BME280_humidity;BME280_pressure;Samples;Min_cycle;Max_cycle;Signal;HPM_P1;HPM_P2
2022/01/26 00:06:21;;;;;;;29.17;18.33;;;;;;;1.59;91.04;99790.69;2181887;81;21416;-81
2022/01/26 00:09:15;;;;;;;29.10;18.70;;;;;;;1.58;91.16;99790.19;2181071;82;21047;-81
2022/01/26 00:15:18;;;;;;;27.33;18.23;;;;;;;1.58;91.12;99787.63;2159002;82;21004;-81
2022/01/26 00:18:22;;;;;;;23.67;15.73;;;;;;;1.57;91.19;99777.72;2157689;82;20964;-80
2022/01/26 00:40:27;;;;;;;18.93;12.30;;;;;;;1.49;90.43;99770.33;2182457;82;21007;-82
2022/01/26 00:43:26;;;;;;;22.07;14.50;;;;;;;1.53;90.60;99776.16;2181757;81;21007;-81
2022/01/26 00:46:25;;;;;;;21.80;14.77;;;;;;;1.54;90.64;99771.50;2182277;82;21030;-82
2022/01/26 00:49:25;;;;;;;19.80;13.27;;;;;;;1.52;90.81;99771.41;2182251;82;20928;-82
2022/01/26 00:52:37;;;;;;;21.43;13.87;;;;;;;1.52;90.63;99776.95;2182498;82;21022;-81
2022/01/26 00:55:29;;;;;;;22.00;15.10;;;;;;;1.52;90.90;99776.95;2180610;82;20967;-82
2022/01/26 00:58:30;;;;;;;22.03;15.43;;;;;;;1.51;90.92;99773.48;2182421;82;20998;-81
2022/01/26 01:01:32;;;;;;;21.03;14.93;;;;;;;1.51;90.98;99765.77;2182387;82;21004;-81
2022/01/26 01:04:36;;;;;;;20.80;15.23;;;;;;;1.52;90.93;99767.55;2159413;82;21430;-81
2022/01/26 01:07:38;;;;;;;25.43;16.30;;;;;;;1.52;91.16;99772.69;2182320;82;21307;-81
2022/01/26 01:10:40;;;;;;;25.73;16.07;;;;;;;1.49;90.91;99768.64;2182178;80;21007;-80
2022/01/26 01:13:41;;;;;;;26.67;16.57;;;;;;;1.50;91.17;99760.13;2182465;82;20935;-81
2022/01/26 01:16:47;;;;;;;24.93;15.87;;;;;;;1.49;91.33;99763.89;2182093;81;21385;-80
2022/01/26 01:20:10;;;;;;;25.33;16.53;;;;;;;1.51;91.38;99767.45;2159080;82;21018;-81
2022/01/26 01:23:25;;;;;;;29.23;18.37;;;;;;;1.50;91.46;99770.81;2178860;80;21375;-81
2022/01/26 01:29:11;;;;;;;32.87;17.53;;;;;;;1.49;91.77;99757.46;2158597;82;21489;-81
2022/01/26 01:32:10;;;;;;;25.77;17.70;;;;;;;1.47;91.81;99760.34;2180034;80;20992;-81
2022/01/26 01:38:11;;;;;;;32.77;17.93;;;;;;;1.48;92.12;99755.28;2158926;82;20932;-80
2022/01/26 01:41:09;;;;;;;24.90;17.17;;;;;;;1.49;92.09;99754.48;2181006;80;21007;-79
2022/01/26 01:44:09;;;;;;;23.93;16.87;;;;;;;1.50;92.17;99755.38;2181408;82;21326;-80
2022/01/26 01:47:10;;;;;;;23.43;15.03;;;;;;;1.51;92.08;99746.47;2180696;82;21020;-80
2022/01/26 01:53:12;;;;;;;18.43;14.10;;;;;;;1.54;91.93;99744.08;2158799;82;21114;-80
2022/01/26 01:56:13;;;;;;;17.90;13.07;;;;;;;1.55;91.76;99743.28;2182280;82;20944;-80
2022/01/26 01:59:13;;;;;;;17.80;11.63;;;;;;;1.56;91.79;99738.63;2182115;82;20999;-81
2022/01/26 02:02:14;;;;;;;18.97;13.47;;;;;;;1.55;91.92;99741.11;2182281;82;20948;-81
2022/01/26 02:08:19;;;;;;;17.67;12.75;;;;;;;1.55;91.68;99747.55;2136378;82;20990;-82
2022/01/26 02:11:19;;;;;;;23.90;14.90;;;;;;;1.59;91.76;99737.93;2183081;82;20904;-81
2022/01/26 02:14:36;;;;;;;23.50;14.33;;;;;;;1.60;91.58;99738.02;2182138;82;20987;-81
2022/01/26 02:57:48;;;;;;;12.10;10.23;;;;;;;1.62;91.40;99722.67;2159454;81;20981;-81
2022/01/26 03:07:43;;;;;;;10.97;9.47;;;;;;;1.66;91.12;99724.64;2135997;82;20989;-81
2022/01/26 03:10:51;;;;;;;15.93;10.17;;;;;;;1.70;91.06;99715.02;2158199;82;21060;-79
2022/01/26 03:13:51;;;;;;;13.50;10.07;;;;;;;1.73;90.85;99717.78;2157661;82;20929;-79
2022/01/26 03:19:53;;;;;;;16.03;11.13;;;;;;;1.69;90.75;99717.50;2135199;82;20987;-80
2022/01/26 03:32:54;;;;;;;16.37;11.40;;;;;;;1.69;90.79;99714.53;2136638;83;20944;-82
2022/01/26 03:44:55;;;;;;;22.83;12.40;;;;;;;1.65;91.20;99704.84;2051874;87;21024;-82
2022/01/26 03:47:56;;;;;;;18.57;12.83;;;;;;;1.68;91.27;99711.47;2051761;87;20953;-81
2022/01/26 03:50:56;;;;;;;28.57;16.00;;;;;;;1.68;91.05;99709.29;2053090;87;20937;-81
2022/01/26 03:53:59;;;;;;;30.97;14.97;;;;;;;1.73;91.25;99702.73;2030891;87;21427;-81
2022/01/26 03:57:01;;;;;;;20.23;13.47;;;;;;;1.76;91.17;99699.98;2052985;85;21004;-81
2022/01/26 04:00:06;;;;;;;23.37;12.60;;;;;;;1.77;90.99;99699.58;2053569;87;21364;-81
2022/01/26 04:12:19;;;;;;;17.33;12.23;;;;;;;1.82;91.03;99698.17;2053055;86;21040;-81
2022/01/26 04:15:29;;;;;;;19.60;12.63;;;;;;;1.79;90.95;99695.41;2087075;82;20965;-81
2022/01/26 04:18:36;;;;;;;15.00;10.80;;;;;;;1.77;90.93;99690.17;2157920;82;21451;-81
2022/01/26 04:24:49;;;;;;;15.73;11.13;;;;;;;1.80;90.89;99694.61;2137130;81;21383;-81
2022/01/26 04:27:52;;;;;;;16.48;11.48;;;;;;;1.77;90.70;99694.03;2134988;82;21008;-80
2022/01/26 04:30:54;;;;;;;13.87;10.10;;;;;;;1.80;90.63;99699.37;2157519;82;21024;-81
2022/01/26 04:33:58;;;;;;;14.80;10.23;;;;;;;1.75;90.01;99687.02;2134653;83;21066;-81
2022/01/26 04:37:11;;;;;;;16.30;11.30;;;;;;;1.74;90.13;99696.42;2158123;82;21083;-81
2022/01/26 04:40:07;;;;;;;18.73;12.17;;;;;;;1.74;90.04;99695.14;2155670;82;21128;-82
2022/01/26 04:52:20;;;;;;;16.30;11.40;;;;;;;1.80;89.95;99686.49;2133756;82;21427;-82
2022/01/26 05:01:28;;;;;;;17.03;12.87;;;;;;;1.80;89.98;99677.48;2134651;82;21459;-79
2022/01/26 05:07:33;;;;;;;18.37;13.33;;;;;;;1.79;90.10;99675.70;2135535;82;20995;-82
2022/01/26 05:10:37;;;;;;;18.30;13.80;;;;;;;1.76;90.13;99676.81;2157099;82;21494;-82
2022/01/26 05:13:37;;;;;;;24.30;16.30;;;;;;;1.77;90.31;99677.30;2156896;80;21019;-82
2022/01/26 05:16:40;;;;;;;29.30;20.03;;;;;;;1.74;90.29;99677.12;2134134;82;21064;-81
2022/01/26 05:19:42;;;;;;;26.97;16.07;;;;;;;1.72;90.27;99670.96;2110893;83;21004;-79
2022/01/26 05:22:47;;;;;;;17.50;12.37;;;;;;;1.70;90.44;99673.84;2157083;82;21498;-80
2022/01/26 05:25:49;;;;;;;17.83;11.70;;;;;;;1.68;90.68;99679.30;2134966;81;21059;-80
2022/01/26 05:28:51;;;;;;;17.57;12.73;;;;;;;1.65;90.75;99678.22;2132501;83;20989;-80
2022/01/26 05:31:55;;;;;;;18.63;12.97;;;;;;;1.64;90.72;99672.19;2156329;82;21059;-80
2022/01/26 05:38:00;;;;;;;19.27;14.87;;;;;;;1.66;90.84;99674.45;2121720;82;21056;-81
2022/01/26 05:41:07;;;;;;;22.23;14.57;;;;;;;1.67;91.00;99672.77;2156942;81;21036;-80
2022/01/26 05:50:18;;;;;;;19.10;14.20;;;;;;;1.66;91.02;99670.59;2134451;82;20960;-81
2022/01/26 06:02:36;;;;;;;23.32;15.98;;;;;;;1.70;91.13;99660.97;2089386;83;21369;-82
2022/01/26 06:05:43;;;;;;;22.70;16.12;;;;;;;1.71;91.50;99662.75;2119125;83;21022;-81
2022/01/26 06:11:46;;;;;;;19.30;13.47;;;;;;;1.76;91.37;99661.37;2112543;83;21006;-81
2022/01/26 06:14:48;;;;;;;23.67;14.87;;;;;;;1.77;91.22;99663.55;2106758;83;21604;-81
2022/01/26 06:17:50;;;;;;;18.77;14.20;;;;;;;1.76;91.21;99663.94;2142642;82;20985;-82
2022/01/26 06:52:55;;;;;;;21.07;13.43;;;;;;;1.75;90.57;99646.72;2040696;86;21100;-83
2022/01/26 06:59:03;;;;;;;21.07;12.20;;;;;;;1.75;90.46;99647.12;2050732;86;21069;-82
2022/01/26 07:02:06;;;;;;;19.07;12.90;;;;;;;1.73;90.43;99647.00;2017253;88;21048;-83
2022/01/26 07:05:07;;;;;;;14.67;10.17;;;;;;;1.74;90.44;99650.49;2017582;88;21019;-83
2022/01/26 07:08:07;;;;;;;15.83;11.17;;;;;;;1.74;90.47;99651.37;2018089;88;21051;-83
2022/01/26 07:11:08;;;;;;;17.73;11.63;;;;;;;1.74;90.27;99648.80;2018886;88;21016;-82
2022/01/26 07:14:10;;;;;;;22.90;12.03;;;;;;;1.74;90.29;99653.95;2018807;88;21051;-80
2022/01/26 07:21:20;;;;;;;18.93;12.80;;;;;;;1.79;90.11;99656.41;2017731;88;21059;-82
2022/01/26 07:23:33;;;;;;;17.73;12.70;;;;;;;1.80;90.06;99658.17;2041153;86;21442;-83
2022/01/26 07:26:37;;;;;;;17.13;12.27;;;;;;;1.83;90.08;99663.50;2065265;84;21103;-83
2022/01/26 07:29:37;;;;;;;15.80;12.07;;;;;;;1.86;89.75;99663.69;2110708;84;20955;-82
2022/01/26 07:32:38;;;;;;;14.00;12.27;;;;;;;1.89;89.60;99661.30;2110743;84;20949;-82
2022/01/26 07:38:44;;;;;;;21.93;15.40;;;;;;;1.94;89.31;99661.96;2120854;82;21026;-82
2022/01/26 07:41:45;;;;;;;22.40;15.07;;;;;;;1.94;89.25;99659.39;2078642;86;21046;-83
2022/01/26 07:44:45;;;;;;;19.40;14.43;;;;;;;1.96;89.17;99659.08;2121125;84;21025;-82
2022/01/26 07:47:47;;;;;;;22.33;16.23;;;;;;;2.01;88.99;99665.37;2077989;86;21065;-83
2022/01/26 07:50:51;;;;;;;33.03;21.73;;;;;;;2.07;89.00;99664.45;2120000;84;21129;-82
2022/01/26 07:53:50;;;;;;;32.97;21.80;;;;;;;2.06;88.84;99658.81;2077238;86;21064;-82
2022/01/26 07:56:50;;;;;;;23.27;16.43;;;;;;;2.08;88.85;99656.81;2120360;84;21017;-83
2022/01/26 07:59:52;;;;;;;28.47;18.17;;;;;;;2.09;88.85;99658.98;2077844;86;21061;-81
2022/01/26 08:02:53;;;;;;;29.87;17.93;;;;;;;2.10;88.96;99657.79;2120320;84;21028;-82
2022/01/26 08:05:53;;;;;;;29.97;18.13;;;;;;;2.13;88.89;99664.80;2078856;86;21021;-83
2022/01/26 08:08:53;;;;;;;33.87;21.50;;;;;;;2.08;88.75;99655.92;2120784;84;20985;-83
2022/01/26 08:11:54;;;;;;;45.23;22.07;;;;;;;2.06;88.89;99658.81;2124077;82;20996;-82
2022/01/26 08:14:54;;;;;;;36.43;21.00;;;;;;;2.06;88.89;99667.42;2155204;83;21037;-83
2022/01/26 08:17:55;;;;;;;41.63;21.57;;;;;;;2.11;89.02;99661.25;2204871;81;21036;-84
2022/01/26 08:21:03;;;;;;;35.60;18.97;;;;;;;2.20;88.81;99660.49;2206072;81;21490;-82
2022/01/26 08:24:03;;;;;;;36.87;22.13;;;;;;;2.20;88.41;99657.92;2205357;81;21422;-81
2022/01/26 08:27:06;;;;;;;22.77;16.20;;;;;;;2.26;88.38;99651.83;2201674;81;21095;-83
2022/01/26 08:33:05;;;;;;;19.60;13.03;;;;;;;2.46;88.02;99662.87;2174289;81;21035;-83
2022/01/26 08:36:05;;;;;;;20.73;13.83;;;;;;;2.54;87.73;99659.03;2198827;81;20957;-83
2022/01/26 08:39:06;;;;;;;17.93;13.17;;;;;;;2.60;87.29;99659.81;2198780;81;21452;-82
2022/01/26 08:42:06;;;;;;;25.03;15.60;;;;;;;2.69;87.31;99658.15;2255398;78;21003;-82
2022/01/26 08:45:07;;;;;;;27.63;15.70;;;;;;;2.79;86.66;99665.59;2282919;78;20960;-82
2022/01/26 08:48:08;;;;;;;18.20;11.53;;;;;;;2.95;86.70;99668.20;2282229;77;20940;-83
2022/01/26 08:51:08;;;;;;;20.10;12.83;;;;;;;3.11;86.10;99666.95;2281878;77;21042;-82
2022/01/26 08:54:12;;;;;;;18.33;12.77;;;;;;;3.17;85.51;99663.41;2281746;77;21067;-82
2022/01/26 08:57:14;;;;;;;17.00;11.33;;;;;;;3.27;85.22;99662.61;2258555;78;21026;-80
2022/01/26 09:00:19;;;;;;;17.57;12.23;;;;;;;3.32;84.75;99671.48;2280324;78;21009;-82
2022/01/26 09:03:20;;;;;;;22.47;13.47;;;;;;;3.27;84.49;99669.05;2281490;78;21887;-82
2022/01/26 09:06:21;;;;;;;21.83;11.33;;;;;;;3.27;85.15;99667.77;2281657;77;21006;-82
2022/01/26 09:09:21;;;;;;;23.90;15.80;;;;;;;3.29;84.58;99667.45;2281725;78;20968;-81
2022/01/26 09:12:24;;;;;;;18.93;13.10;;;;;;;3.28;85.01;99668.25;2281325;77;21023;-82
2022/01/26 09:15:28;;;;;;;19.07;12.60;;;;;;;3.30;84.86;99670.11;2281612;78;21068;-81
2022/01/26 09:18:43;;;;;;;19.37;13.87;;;;;;;3.26;84.67;99672.44;2280928;78;21083;-83
2022/01/26 09:21:35;;;;;;;16.23;12.10;;;;;;;3.26;84.74;99672.44;2280204;78;21111;-81
2022/01/26 09:24:36;;;;;;;17.97;12.43;;;;;;;3.22;84.36;99680.42;2282077;78;20984;-82
2022/01/26 09:27:36;;;;;;;22.70;14.07;;;;;;;3.16;84.80;99677.11;2258465;77;21003;-80
2022/01/26 09:30:37;;;;;;;21.57;14.07;;;;;;;3.22;84.96;99688.56;2246709;79;21281;-82
2022/01/26 09:33:37;;;;;;;20.13;13.33;;;;;;;3.29;85.01;99684.22;2247273;79;20994;-81
2022/01/26 09:36:38;;;;;;;24.23;15.37;;;;;;;3.26;84.42;99684.94;2246926;79;21021;-83
2022/01/26 09:39:38;;;;;;;26.37;14.33;;;;;;;3.24;84.29;99681.80;2247380;79;20977;-81
2022/01/26 09:42:39;;;;;;;22.73;14.40;;;;;;;3.16;84.39;99682.27;2248188;78;20923;-83
2022/01/26 09:45:39;;;;;;;30.33;15.87;;;;;;;3.06;84.28;99675.23;2248181;79;20939;-81
2022/01/26 09:48:42;;;;;;;21.73;14.00;;;;;;;3.00;84.61;99676.19;2247705;79;20963;-82
2022/01/26 09:51:43;;;;;;;24.57;15.53;;;;;;;2.91;84.62;99669.24;2247376;79;21493;-82
2022/01/26 09:54:44;;;;;;;16.30;11.70;;;;;;;2.90;85.22;99674.80;2248153;78;21023;-82
2022/01/26 09:57:44;;;;;;;24.53;14.90;;;;;;;2.86;85.22;99671.56;2247916;79;20995;-79
2022/01/26 10:00:45;;;;;;;17.87;12.50;;;;;;;2.82;85.56;99677.36;2246602;79;20998;-82
2022/01/26 10:03:46;;;;;;;29.47;16.90;;;;;;;2.82;85.45;99672.20;2246956;79;20948;-82
2022/01/26 10:06:49;;;;;;;29.67;18.57;;;;;;;2.73;85.56;99672.58;2247363;79;21368;-82
2022/01/26 10:19:38;;;;;;;22.20;16.10;;;;;;;3.09;85.10;99654.77;2226207;79;20935;-80
2022/01/26 10:22:39;;;;;;;23.57;17.17;;;;;;;3.05;85.02;99650.25;2247506;79;21339;-82
2022/01/26 10:25:39;;;;;;;25.63;17.20;;;;;;;3.01;85.52;99647.91;2246873;79;21002;-81
2022/01/26 10:28:41;;;;;;;29.83;18.27;;;;;;;3.27;86.00;99641.97;2273306;77;21452;-82
2022/01/26 10:31:42;;;;;;;28.83;16.10;;;;;;;3.23;85.96;99633.58;2300166;77;20960;-82
2022/01/26 10:34:42;;;;;;;27.53;16.97;;;;;;;3.05;85.41;99636.06;2300005;77;20990;-81
2022/01/26 10:37:43;;;;;;;30.97;20.80;;;;;;;2.93;85.65;99639.27;2299632;77;21695;-81
2022/01/26 10:40:43;;;;;;;29.33;19.17;;;;;;;2.91;86.26;99636.61;2299246;77;21253;-82
2022/01/26 10:43:44;;;;;;;31.13;19.07;;;;;;;2.95;86.74;99630.81;2299760;77;20916;-81
2022/01/26 10:46:44;;;;;;;31.03;19.23;;;;;;;3.03;86.18;99635.09;2299258;77;21025;-82
2022/01/26 10:52:55;;;;;;;33.13;19.30;;;;;;;3.05;86.38;99628.32;2278883;77;21066;-83
2022/01/26 10:55:52;;;;;;;31.83;21.27;;;;;;;3.08;86.37;99626.80;2299510;77;21062;-83
2022/01/26 10:58:53;;;;;;;26.30;15.77;;;;;;;3.09;86.32;99626.39;2300831;77;21366;-83
2022/01/26 11:01:54;;;;;;;30.67;19.37;;;;;;;3.11;86.44;99625.67;2300562;77;21334;-81
2022/01/26 11:04:55;;;;;;;30.87;19.73;;;;;;;3.13;86.51;99616.32;2300235;77;21333;-81
2022/01/26 11:07:55;;;;;;;30.73;19.07;;;;;;;3.14;86.41;99608.17;2300354;77;20947;-81
2022/01/26 11:10:56;;;;;;;34.57;16.80;;;;;;;3.17;86.64;99604.06;2300143;77;20983;-79
2022/01/26 11:13:57;;;;;;;29.97;16.37;;;;;;;3.20;86.40;99607.21;2300728;77;21074;-82
2022/01/26 11:16:59;;;;;;;26.37;15.23;;;;;;;3.20;86.48;99604.23;2301358;77;21042;-81
2022/01/26 11:20:00;;;;;;;32.40;18.20;;;;;;;3.12;86.34;99603.34;2300374;77;20979;-82
2022/01/26 11:23:00;;;;;;;28.40;16.83;;;;;;;3.12;86.73;99595.20;2300472;77;21022;-81
2022/01/26 11:26:01;;;;;;;27.30;16.77;;;;;;;3.16;86.68;99601.41;2301174;77;21913;-82
2022/01/26 11:29:03;;;;;;;28.43;18.37;;;;;;;3.10;86.55;99599.39;2162939;82;21078;-82
2022/01/26 11:32:06;;;;;;;25.30;15.80;;;;;;;3.01;86.75;99592.45;2162797;82;21022;-82
2022/01/26 11:35:08;;;;;;;25.90;15.30;;;;;;;2.93;86.90;99600.18;2162567;82;20963;-81
2022/01/26 11:38:14;;;;;;;25.00;15.77;;;;;;;2.90;87.23;99594.86;2162009;82;20992;-81
2022/01/26 11:47:49;;;;;;;25.10;14.47;;;;;;;2.82;87.87;99591.87;2163930;82;20987;-82
2022/01/26 11:50:50;;;;;;;24.90;14.30;;;;;;;2.76;87.95;99586.38;2163845;82;20992;-82
2022/01/26 11:53:51;;;;;;;26.17;15.43;;;;;;;2.90;88.64;99580.67;2163416;82;21096;-82
2022/01/26 11:56:51;;;;;;;23.63;14.33;;;;;;;2.84;88.28;99585.10;2162821;82;21769;-82
2022/01/26 11:59:52;;;;;;;27.33;17.93;;;;;;;2.75;88.12;99577.27;2162098;82;21043;-84
2022/01/26 12:02:56;;;;;;;25.10;15.87;;;;;;;2.80;88.37;99574.14;2138881;82;20999;-81
2022/01/26 12:05:57;;;;;;;23.77;14.23;;;;;;;2.88;88.32;99568.98;2161147;80;21014;-80
2022/01/26 12:08:58;;;;;;;31.93;17.00;;;;;;;2.79;88.19;99573.66;2163279;82;21106;-81
2022/01/26 12:11:59;;;;;;;23.37;15.07;;;;;;;2.76;88.26;99571.31;2162669;82;21015;-80
2022/01/26 12:15:01;;;;;;;26.73;15.53;;;;;;;2.76;88.30;99570.02;2162280;82;21026;-80
2022/01/26 12:34:57;;;;;;;26.83;15.60;;;;;;;2.64;88.84;99552.61;2304020;77;21327;-82
2022/01/26 12:37:58;;;;;;;22.63;15.10;;;;;;;2.61;88.74;99543.42;2301259;77;21033;-85
2022/01/26 12:44:14;;;;;;;27.43;16.20;;;;;;;2.61;88.86;99537.87;2302894;77;21035;-81
2022/01/26 12:47:14;;;;;;;26.70;16.37;;;;;;;2.62;88.85;99537.46;2302017;77;20998;-80
2022/01/26 12:50:15;;;;;;;21.17;13.93;;;;;;;2.61;89.02;99542.13;2303093;77;20975;-80
2022/01/26 12:53:17;;;;;;;28.33;16.43;;;;;;;2.56;89.03;99547.89;2269709;77;21007;-80
2022/01/26 12:56:18;;;;;;;25.63;16.23;;;;;;;2.59;89.16;99543.30;2303825;77;21425;-81
2022/01/26 12:59:18;;;;;;;27.43;15.30;;;;;;;2.59;89.00;99545.88;2303354;77;21385;-80
2022/01/26 13:02:20;;;;;;;24.20;15.20;;;;;;;2.58;89.07;99535.09;2302761;77;21007;-80
2022/01/26 13:05:20;;;;;;;20.17;14.10;;;;;;;2.52;89.02;99536.93;2301883;77;20935;-80
2022/01/26 13:08:21;;;;;;;19.83;14.57;;;;;;;2.50;89.08;99552.72;2301975;77;21002;-81
2022/01/26 13:11:21;;;;;;;22.87;15.40;;;;;;;2.44;89.04;99545.05;2302254;77;20955;-79
2022/01/26 13:14:26;;;;;;;21.83;13.13;;;;;;;2.41;89.28;99543.19;2302266;77;20991;-81
2022/01/26 13:20:44;;;;;;;23.37;13.30;;;;;;;2.43;89.30;99535.14;2262378;77;20967;-82
2022/01/26 13:23:42;;;;;;;23.17;15.00;;;;;;;2.39;89.20;99537.06;2298618;77;21114;-81
2022/01/26 13:26:57;;;;;;;23.27;14.70;;;;;;;2.43;89.07;99536.43;2300109;77;21062;-81
2022/01/26 13:30:13;;;;;;;21.12;13.22;;;;;;;2.54;88.96;99535.73;2299251;77;21050;-81
2022/01/26 13:36:32;;;;;;;21.23;13.43;;;;;;;2.64;88.50;99530.70;2269241;77;21991;-81
2022/01/26 13:43:00;;;;;;;13.77;10.37;;;;;;;2.58;88.34;99529.93;2271232;77;21019;-82
2022/01/26 13:45:55;;;;;;;14.57;9.33;;;;;;;2.51;88.24;99532.58;2297561;76;20998;-81
2022/01/26 13:55:00;;;;;;;17.63;12.87;;;;;;;2.28;88.19;99533.02;2271014;77;21122;-81
2022/01/26 13:58:06;;;;;;;20.70;13.90;;;;;;;2.19;88.37;99526.95;2299964;77;21034;-81
2022/01/26 14:00:59;;;;;;;22.73;13.93;;;;;;;2.12;88.50;99528.70;2298840;77;21935;-82
2022/01/26 14:04:03;;;;;;;23.50;13.50;;;;;;;2.05;88.63;99526.98;2301832;77;21073;-82
2022/01/26 14:06:59;;;;;;;20.80;14.90;;;;;;;1.97;88.49;99529.53;2301806;77;21437;-82
2022/01/26 14:10:00;;;;;;;17.30;12.50;;;;;;;1.91;88.54;99521.06;2303124;77;21018;-83
2022/01/26 14:13:02;;;;;;;22.17;14.40;;;;;;;1.89;88.72;99530.39;2302575;77;21063;-82
2022/01/26 14:16:04;;;;;;;28.13;18.20;;;;;;;1.87;88.98;99526.84;2303470;77;20964;-82
2022/01/26 14:19:12;;;;;;;25.63;17.83;;;;;;;1.86;89.28;99528.53;2304137;77;21413;-81
2022/01/26 14:28:31;;;;;;;26.93;16.63;;;;;;;1.91;89.83;99530.08;2246909;79;21059;-82
2022/01/26 14:31:51;;;;;;;22.93;13.90;;;;;;;1.87;89.93;99530.30;2244324;79;21028;-82
2022/01/26 14:50:57;;;;;;;27.37;15.87;;;;;;;1.95;90.44;99507.97;2221233;79;20936;-81
2022/01/26 14:51:36;;;;;;;24.67;14.10;;;;;;;2.02;90.55;99520.37;2245206;79;20981;-81
2022/01/26 16:35:30;;;;;;;29.27;19.77;;;;;;;1.78;92.45;99536.62;2267316;78;21402;-82
2022/01/26 17:21:16;;;;;;;55.40;30.87;;;;;;;1.93;92.42;99518.58;2290351;77;21058;-81
2022/01/26 17:47:07;;;;;;;38.13;21.43;;;;;;;1.93;92.41;99506.99;2213325;79;21046;-81
2022/01/26 18:13:05;;;;;;;35.47;21.33;;;;;;;1.87;92.05;99511.00;2240673;78;20998;-80
2022/01/26 18:13:18;;;;;;;46.10;26.80;;;;;;;1.82;92.30;99524.00;2243130;79;21048;-82
2022/01/26 18:16:25;;;;;;;44.27;27.00;;;;;;;1.82;92.42;99510.25;2240803;79;21018;-81
2022/01/26 18:32:31;;;;;;;36.73;22.07;;;;;;;1.81;92.19;99522.23;2279936;78;20981;-79
2022/01/26 18:39:08;;;;;;;41.43;23.60;;;;;;;1.77;92.00;99504.84;2281460;78;20993;-82
2022/01/26 18:51:52;;;;;;;34.63;19.73;;;;;;;1.64;91.26;99503.63;2278852;78;21043;-81
2022/01/26 18:54:53;;;;;;;24.53;15.33;;;;;;;1.59;91.16;99500.78;2279273;78;21021;-81
2022/01/26 18:57:53;;;;;;;30.03;18.50;;;;;;;1.57;90.83;99498.52;2280906;78;20930;-82
2022/01/26 19:00:54;;;;;;;24.53;17.20;;;;;;;1.53;90.72;99505.98;2281599;78;20894;-82
2022/01/26 19:03:54;;;;;;;30.80;19.07;;;;;;;1.50;90.67;99502.83;2281079;78;20970;-82
2022/01/26 19:06:55;;;;;;;33.90;19.10;;;;;;;1.48;90.29;99501.86;2281484;78;20919;-82
2022/01/26 19:09:55;;;;;;;22.43;15.13;;;;;;;1.45;90.48;99487.53;2280619;78;20911;-82
2022/01/26 19:12:56;;;;;;;21.90;14.77;;;;;;;1.47;90.29;99492.77;2279621;78;20961;-82
2022/01/26 19:16:04;;;;;;;29.07;16.07;;;;;;;1.46;90.09;99488.42;2281216;78;20938;-81
2022/01/26 19:19:15;;;;;;;24.90;16.77;;;;;;;1.43;90.08;99497.24;2280524;78;20950;-82
2022/01/26 19:25:16;;;;;;;25.80;17.40;;;;;;;1.42;89.82;99494.19;2260922;78;21041;-81
2022/01/26 19:28:19;;;;;;;31.10;19.23;;;;;;;1.42;89.60;99487.75;2280724;78;21066;-82
2022/01/26 19:32:03;;;;;;;32.23;19.90;;;;;;;1.44;89.88;99491.30;2289994;77;21392;-82
2022/01/26 19:44:51;;;;;;;35.67;17.87;;;;;;;1.51;89.10;99493.03;2290943;77;21004;-82
2022/01/26 19:50:53;;;;;;;18.83;12.20;;;;;;;1.45;88.60;99500.80;2268462;78;20996;-83
2022/01/26 19:53:52;;;;;;;20.93;14.67;;;;;;;1.39;87.91;99496.58;2291361;77;20971;-82
2022/01/26 19:56:52;;;;;;;21.07;14.23;;;;;;;1.34;88.17;99504.03;2289787;78;21425;-81
2022/01/26 19:59:53;;;;;;;20.70;13.43;;;;;;;1.30;88.39;99496.93;2291229;78;20936;-82
2022/01/26 20:02:54;;;;;;;18.20;12.03;;;;;;;1.25;88.24;99500.52;2291353;78;20979;-81
2022/01/26 20:05:55;;;;;;;22.17;13.00;;;;;;;1.20;88.34;99491.65;2291375;78;20940;-82
2022/01/26 20:09:02;;;;;;;19.83;12.77;;;;;;;1.15;88.22;99496.92;2291917;78;20968;-82
2022/01/26 20:12:04;;;;;;;25.45;12.35;;;;;;;1.09;88.30;99492.70;2267681;78;20980;-82
2022/01/26 20:15:03;;;;;;;18.13;12.83;;;;;;;1.06;88.27;99482.64;2290397;78;21366;-84
2022/01/26 20:18:03;;;;;;;22.03;13.90;;;;;;;1.02;88.06;99489.28;2291750;78;21003;-82
2022/01/26 20:21:04;;;;;;;21.73;13.73;;;;;;;0.99;88.22;99483.06;2291769;78;20948;-82
2022/01/26 20:24:04;;;;;;;21.53;13.73;;;;;;;1.00;88.12;99500.27;2291178;78;21418;-83
2022/01/26 20:27:07;;;;;;;21.50;12.47;;;;;;;0.99;88.11;99501.06;2291641;78;21363;-82
2022/01/26 20:30:16;;;;;;;13.57;10.23;;;;;;;0.98;87.93;99504.03;2291435;78;21476;-82
2022/01/26 20:33:12;;;;;;;14.57;10.50;;;;;;;0.95;87.70;99506.42;2290822;77;21005;-82
2022/01/26 20:36:13;;;;;;;14.87;11.03;;;;;;;0.93;87.51;99513.16;2291668;78;20928;-82
2022/01/26 20:39:14;;;;;;;16.80;11.43;;;;;;;0.89;87.73;99511.19;2291509;78;20924;-83
2022/01/26 20:42:14;;;;;;;19.93;12.63;;;;;;;0.86;87.99;99494.27;2291458;78;20869;-82
2022/01/26 20:45:21;;;;;;;23.77;12.07;;;;;;;0.85;87.97;99498.92;2289763;78;21363;-83
2022/01/26 20:48:21;;;;;;;20.57;13.37;;;;;;;0.84;87.63;99495.86;2289412;78;21631;-82
2022/01/26 20:51:22;;;;;;;18.57;12.43;;;;;;;0.81;87.93;99490.53;2289572;78;21014;-82
2022/01/26 20:54:22;;;;;;;19.00;12.80;;;;;;;0.82;88.05;99488.45;2289826;78;20980;-81
2022/01/26 20:57:23;;;;;;;20.07;13.00;;;;;;;0.82;88.03;99485.48;2290830;78;21366;-81
2022/01/26 21:00:23;;;;;;;21.90;12.27;;;;;;;0.82;88.04;99503.88;2291020;78;21307;-83
2022/01/26 21:03:24;;;;;;;21.77;13.20;;;;;;;0.82;88.13;99494.88;2290059;78;21354;-83
2022/01/26 21:06:24;;;;;;;21.80;13.83;;;;;;;0.82;87.96;99485.89;2290639;78;20958;-82
2022/01/26 21:09:25;;;;;;;26.57;16.10;;;;;;;0.84;88.14;99488.15;2289758;78;20995;-83
2022/01/26 21:12:26;;;;;;;23.43;15.27;;;;;;;0.84;88.13;99479.16;2290607;78;20945;-82
2022/01/26 21:15:28;;;;;;;30.30;17.33;;;;;;;0.85;88.28;99473.22;2290772;78;21011;-83
2022/01/26 21:18:31;;;;;;;29.57;17.97;;;;;;;0.87;88.36;99471.66;2290788;78;21004;-82
2022/01/26 21:21:32;;;;;;;34.23;19.00;;;;;;;0.88;88.33;99473.04;2290964;78;21354;-83
2022/01/26 21:24:32;;;;;;;28.97;18.13;;;;;;;0.91;88.49;99472.33;2289880;78;21054;-81
2022/01/26 21:27:32;;;;;;;28.50;17.83;;;;;;;0.89;88.24;99470.07;2288873;78;20952;-82
2022/01/26 21:30:35;;;;;;;30.17;17.97;;;;;;;0.90;88.22;99470.56;2235893;79;20969;-82
2022/01/26 21:33:35;;;;;;;26.80;17.60;;;;;;;0.90;88.06;99474.02;2240539;79;20962;-82
2022/01/26 21:36:39;;;;;;;34.40;17.93;;;;;;;0.90;88.10;99475.30;2240772;78;20994;-81
2022/01/26 21:39:41;;;;;;;35.23;19.20;;;;;;;0.92;87.99;99470.25;2241353;78;20998;-82
2022/01/26 21:42:43;;;;;;;33.98;17.60;;;;;;;0.91;87.91;99478.76;2219188;79;21002;-82
2022/01/26 21:45:44;;;;;;;39.40;18.87;;;;;;;0.90;87.97;99471.45;2241204;78;21987;-82
2022/01/26 21:48:44;;;;;;;38.20;18.07;;;;;;;0.91;87.90;99474.91;2241323;78;21353;-82
2022/01/26 21:51:45;;;;;;;34.00;16.80;;;;;;;0.90;87.69;99470.56;2241319;79;21345;-82
2022/01/26 21:54:45;;;;;;;36.00;16.80;;;;;;;0.92;87.50;99458.69;2240695;79;21453;-83
2022/01/26 21:57:47;;;;;;;32.33;18.30;;;;;;;0.90;87.51;99459.87;2241056;78;20982;-83
2022/01/26 22:00:47;;;;;;;29.53;15.43;;;;;;;0.91;87.60;99458.20;2241298;78;21047;-82
2022/01/26 22:06:50;;;;;;;29.43;15.97;;;;;;;0.94;87.31;99453.23;2220144;79;21030;-82
2022/01/26 22:09:52;;;;;;;26.80;14.50;;;;;;;0.97;87.17;99448.67;2242112;78;20955;-81
2022/01/26 22:12:53;;;;;;;21.53;14.17;;;;;;;0.97;87.27;99448.28;2243038;79;20991;-82
2022/01/26 22:15:53;;;;;;;26.37;15.57;;;;;;;0.97;87.21;99432.85;2242967;79;20942;-81
2022/01/26 22:18:54;;;;;;;22.63;14.80;;;;;;;0.97;87.25;99434.14;2243146;79;20954;-81
2022/01/26 22:24:59;;;;;;;23.75;14.43;;;;;;;0.98;86.73;99414.06;2195993;79;21003;-81
2022/01/26 22:27:59;;;;;;;20.77;13.40;;;;;;;0.98;86.82;99407.63;2241918;79;20980;-81
2022/01/26 22:31:00;;;;;;;20.17;13.73;;;;;;;0.99;86.67;99409.80;2267238;78;20946;-81
2022/01/26 22:34:02;;;;;;;23.00;14.20;;;;;;;1.00;86.60;99416.32;2281540;78;20930;-81
2022/01/26 22:37:06;;;;;;;27.10;14.27;;;;;;;1.04;86.31;99416.10;2281433;78;20978;-82
2022/01/26 22:40:06;;;;;;;23.57;13.67;;;;;;;1.04;86.13;99418.67;2281223;78;20993;-82